Time;durP1;ratioP1;P1;durP2;ratioP2;P2;SDS_P1;SDS_P2;PMS_P1;PMS_P2;Temp;Humidity;BMP_temperature;BMP_pressure;BME280_temperature;BME280_humidity;BME280_pressure;Samples;Min_cycle;Max_cycle;Signal;HPM_P1;HPM_P2
2023/07/09 00:00:20;;;;;;;8.13;7.38;;;22.80;99.90;;;;;;5053537;28;20265;-73
2023/07/09 00:02:45;;;;;;;8.57;6.85;;;22.80;99.90;;;;;;5071164;28;20183;-73
2023/07/09 00:05:16;;;;;;;7.70;6.85;;;22.80;99.90;;;;;;5053370;28;20178;-73
2023/07/09 00:07:43;;;;;;;9.25;7.82;;;22.80;99.90;;;;;;5071569;28;20196;-73
2023/07/09 00:10:15;;;;;;;7.95;7.15;;;22.70;99.90;;;;;;5053162;28;20251;-73
2023/07/09 00:12:40;;;;;;;7.47;6.20;;;22.70;99.90;;;;;;5070999;28;20248;-73
2023/07/09 00:15:09;;;;;;;7.90;6.57;;;22.70;99.90;;;;;;5071135;28;20166;-73
2023/07/09 00:17:35;;;;;;;8.50;7.63;;;22.60;99.90;;;;;;5071403;28;20163;-73
2023/07/09 00:20:05;;;;;;;8.75;6.90;;;22.60;99.90;;;;;;5071191;28;20542;-73
2023/07/09 00:22:30;;;;;;;10.60;7.22;;;22.60;99.90;;;;;;5052655;28;20212;-72
2023/07/09 00:24:58;;;;;;;9.18;7.40;;;22.60;99.90;;;;;;5053114;28;20201;-73
2023/07/09 00:27:28;;;;;;;8.90;7.10;;;22.60;99.90;;;;;;5071097;28;20728;-72
2023/07/09 00:29:54;;;;;;;9.05;8.05;;;22.50;99.90;;;;;;5071105;28;20232;-73
2023/07/09 00:32:20;;;;;;;8.20;7.18;;;22.50;99.90;;;;;;5052736;28;20236;-73
2023/07/09 00:34:50;;;;;;;10.82;7.72;;;22.50;99.90;;;;;;5052918;28;20178;-73
2023/07/09 00:37:17;;;;;;;7.95;7.18;;;22.50;99.90;;;;;;5070982;28;20528;-72
2023/07/09 00:39:44;;;;;;;9.82;8.93;;;22.40;99.90;;;;;;5071044;28;20620;-72
2023/07/09 00:42:17;;;;;;;8.52;7.80;;;22.30;99.90;;;;;;5070891;28;20245;-73
2023/07/09 00:44:47;;;;;;;8.63;7.10;;;22.30;99.90;;;;;;5070841;28;20166;-73
2023/07/09 00:47:44;;;;;;;7.57;6.85;;;22.30;99.90;;;;;;5069646;28;20637;-72
2023/07/09 00:50:27;;;;;;;8.65;7.82;;;22.30;99.90;;;;;;5070818;28;20198;-72
2023/07/09 00:53:18;;;;;;;8.68;7.25;;;22.20;99.90;;;;;;5069556;28;20197;-72
2023/07/09 00:55:46;;;;;;;7.80;7.20;;;22.10;99.90;;;;;;5070404;28;20243;-73
2023/07/09 00:58:15;;;;;;;11.13;9.93;;;22.10;99.90;;;;;;5070743;28;20169;-73
2023/07/09 01:00:52;;;;;;;11.85;8.30;;;22.00;99.90;;;;;;5070861;28;20162;-73
2023/07/09 01:03:49;;;;;;;8.23;7.43;;;21.90;99.90;;;;;;5070668;28;20168;-73
2023/07/09 01:06:23;;;;;;;8.48;7.32;;;21.90;99.90;;;;;;5054377;28;20197;-74
2023/07/09 01:08:53;;;;;;;10.82;9.82;;;21.90;99.90;;;;;;5070751;28;20635;-73
2023/07/09 01:11:21;;;;;;;9.80;8.20;;;21.80;99.90;;;;;;5070721;28;20166;-73
2023/07/09 01:14:05;;;;;;;8.88;7.55;;;21.90;99.90;;;;;;5052425;28;20206;-73
2023/07/09 01:16:37;;;;;;;10.43;9.52;;;21.80;99.90;;;;;;5071014;28;20633;-73
2023/07/09 01:19:04;;;;;;;8.80;8.00;;;21.80;99.90;;;;;;5052569;28;20210;-73
2023/07/09 01:21:29;;;;;;;10.15;9.13;;;21.80;99.90;;;;;;5070662;28;20630;-73
2023/07/09 01:23:57;;;;;;;10.77;9.80;;;21.80;99.90;;;;;;5070383;28;20179;-73
2023/07/09 01:26:26;;;;;;;12.95;11.15;;;21.70;99.90;;;;;;5070496;28;20194;-73
2023/07/09 01:28:56;;;;;;;11.27;10.15;;;21.70;99.90;;;;;;5070484;28;20547;-73
2023/07/09 01:31:23;;;;;;;8.85;7.88;;;21.60;99.90;;;;;;5070752;28;20173;-73
2023/07/09 01:33:49;;;;;;;9.68;7.97;;;21.50;99.90;;;;;;5071099;28;20571;-73
2023/07/09 01:36:23;;;;;;;10.68;8.98;;;21.60;99.90;;;;;;5074201;28;20174;-74
2023/07/09 01:38:50;;;;;;;10.57;9.68;;;21.50;99.90;;;;;;5074175;28;20182;-73
2023/07/09 01:41:16;;;;;;;11.52;10.15;;;21.50;99.90;;;;;;5074039;28;20174;-73
2023/07/09 01:43:43;;;;;;;11.02;9.95;;;21.50;99.90;;;;;;5073883;28;20166;-73
2023/07/09 01:46:12;;;;;;;10.25;8.38;;;21.40;99.90;;;;;;5055812;28;20181;-73
2023/07/09 01:48:40;;;;;;;8.63;7.70;;;21.40;99.90;;;;;;5074112;28;20189;-73
2023/07/09 01:51:12;;;;;;;8.82;7.88;;;21.40;99.90;;;;;;5074376;28;20170;-73
2023/07/09 01:53:40;;;;;;;9.05;8.25;;;21.40;99.90;;;;;;5073692;28;20194;-73
2023/07/09 01:56:07;;;;;;;9.07;8.18;;;21.40;99.90;;;;;;5073878;28;20190;-73
2023/07/09 01:58:33;;;;;;;9.18;8.27;;;21.30;99.90;;;;;;5073869;28;20225;-73
2023/07/09 02:00:59;;;;;;;10.32;8.82;;;21.30;99.90;;;;;;5073736;28;20632;-73
2023/07/09 02:03:24;;;;;;;10.18;8.25;;;21.30;99.90;;;;;;5073419;28;20170;-73
2023/07/09 02:05:53;;;;;;;13.25;10.13;;;21.30;99.90;;;;;;5073908;28;20340;-73
2023/07/09 02:08:19;;;;;;;9.63;8.63;;;21.30;99.90;;;;;;5073565;28;20190;-73
2023/07/09 02:10:47;;;;;;;9.82;8.93;;;21.30;99.90;;;;;;5073610;28;20170;-73
2023/07/09 02:13:13;;;;;;;10.27;9.27;;;21.30;99.90;;;;;;5055158;28;20555;-73
2023/07/09 02:15:43;;;;;;;12.05;8.30;;;21.30;99.90;;;;;;5073554;28;20162;-72
2023/07/09 02:18:09;;;;;;;8.45;7.57;;;21.30;99.90;;;;;;5073190;28;20201;-73
2023/07/09 02:20:35;;;;;;;11.43;8.95;;;21.30;99.90;;;;;;5074303;28;20193;-74
2023/07/09 02:23:00;;;;;;;11.15;8.60;;;21.30;99.90;;;;;;5073429;28;20182;-73
2023/07/09 02:25:26;;;;;;;10.55;8.32;;;21.30;99.90;;;;;;5073690;28;20174;-73
2023/07/09 02:27:51;;;;;;;7.97;7.28;;;21.20;99.90;;;;;;5073605;28;20170;-73
2023/07/09 02:30:17;;;;;;;8.70;7.80;;;21.20;99.90;;;;;;5073557;28;20174;-74
2023/07/09 02:32:43;;;;;;;10.85;7.90;;;21.20;99.90;;;;;;5073231;28;20198;-73
2023/07/09 02:35:08;;;;;;;8.68;7.70;;;21.20;99.90;;;;;;5055227;28;20637;-73
2023/07/09 02:37:34;;;;;;;8.27;7.47;;;21.10;99.90;;;;;;5073477;28;20177;-73
2023/07/09 02:40:00;;;;;;;9.70;8.35;;;21.10;99.90;;;;;;5073236;28;20186;-73
2023/07/09 02:42:25;;;;;;;11.73;9.88;;;21.00;99.90;;;;;;5073530;28;20303;-73
2023/07/09 02:44:51;;;;;;;10.23;7.85;;;21.00;99.90;;;;;;5072691;28;20170;-73
2023/07/09 02:47:18;;;;;;;10.50;7.65;;;20.90;99.90;;;;;;5073010;28;20162;-73
2023/07/09 02:49:43;;;;;;;10.68;8.73;;;20.90;99.90;;;;;;5073037;28;20197;-73
2023/07/09 02:52:09;;;;;;;9.20;8.18;;;20.80;99.90;;;;;;5072989;28;20171;-73
2023/07/09 02:54:35;;;;;;;10.45;8.55;;;20.70;99.90;;;;;;5072771;28;20247;-73
2023/07/09 02:57:01;;;;;;;9.07;8.23;;;20.70;99.90;;;;;;5054758;28;20170;-73
2023/07/09 02:59:29;;;;;;;10.45;8.00;;;20.60;99.90;;;;;;5072801;28;20719;-73
2023/07/09 03:01:55;;;;;;;10.70;7.93;;;20.60;99.90;;;;;;5072845;28;20253;-73
2023/07/09 03:04:20;;;;;;;9.18;8.27;;;20.60;99.90;;;;;;5072656;28;20170;-73
2023/07/09 03:06:46;;;;;;;10.50;8.90;;;20.50;99.90;;;;;;5054861;28;20181;-73
2023/07/09 03:09:12;;;;;;;9.63;8.52;;;20.50;99.90;;;;;;5072564;28;20245;-73
2023/07/09 03:11:38;;;;;;;11.35;8.23;;;20.40;99.90;;;;;;5072605;28;20206;-73
2023/07/09 03:14:04;;;;;;;8.35;7.55;;;20.40;99.90;;;;;;5072387;28;20205;-73
2023/07/09 03:16:32;;;;;;;9.98;8.63;;;20.40;99.90;;;;;;5072611;28;20224;-73
2023/07/09 03:18:58;;;;;;;9.55;8.18;;;20.30;99.90;;;;;;5072221;28;20557;-73
2023/07/09 03:21:25;;;;;;;8.52;7.68;;;20.40;99.90;;;;;;5072325;28;20173;-73
2023/07/09 03:23:52;;;;;;;10.05;7.30;;;20.40;99.90;;;;;;5072269;28;20166;-73
2023/07/09 03:26:18;;;;;;;10.00;8.10;;;20.40;99.90;;;;;;5072339;28;20176;-73
2023/07/09 03:28:43;;;;;;;9.43;8.52;;;20.50;99.90;;;;;;5054292;28;20584;-73
2023/07/09 03:31:09;;;;;;;11.60;10.57;;;20.50;99.90;;;;;;5054198;28;20223;-73
2023/07/09 03:33:35;;;;;;;10.93;9.15;;;20.50;99.90;;;;;;5072181;28;20198;-73
2023/07/09 03:36:00;;;;;;;11.13;7.13;;;20.60;99.90;;;;;;5072211;28;20521;-73
2023/07/09 03:38:26;;;;;;;11.57;8.02;;;20.60;99.90;;;;;;5054013;28;20672;-73
2023/07/09 03:40:55;;;;;;;9.32;8.15;;;20.60;99.90;;;;;;5072174;28;20201;-73
2023/07/09 03:43:21;;;;;;;12.52;8.15;;;20.60;99.90;;;;;;5071920;28;20178;-73
2023/07/09 03:45:48;;;;;;;10.20;7.35;;;20.60;99.90;;;;;;5071480;28;20177;-73
2023/07/09 03:48:15;;;;;;;8.65;7.75;;;20.60;99.90;;;;;;5053726;28;20202;-73
2023/07/09 03:50:43;;;;;;;7.70;7.00;;;20.70;99.90;;;;;;5072005;28;20170;-73
2023/07/09 03:53:09;;;;;;;8.70;7.85;;;20.70;99.90;;;;;;5071492;28;20201;-73
2023/07/09 03:55:35;;;;;;;9.75;8.75;;;20.70;99.90;;;;;;5053726;28;20565;-73
2023/07/09 03:58:02;;;;;;;8.70;7.75;;;20.70;99.90;;;;;;5071282;28;20200;-73
2023/07/09 04:00:28;;;;;;;10.65;8.35;;;20.70;99.90;;;;;;5072038;28;20656;-73
2023/07/09 04:02:56;;;;;;;9.90;9.00;;;20.70;99.90;;;;;;5071253;28;20174;-73
2023/07/09 04:05:22;;;;;;;11.85;8.52;;;20.80;99.90;;;;;;5071522;28;20174;-72
2023/07/09 04:07:48;;;;;;;10.35;8.57;;;20.90;99.90;;;;;;5053411;28;20174;-73
2023/07/09 04:10:14;;;;;;;11.07;8.65;;;21.00;99.90;;;;;;5071298;28;20198;-72
2023/07/09 04:12:40;;;;;;;11.50;8.20;;;21.00;99.90;;;;;;5071172;28;20209;-73
2023/07/09 04:15:06;;;;;;;9.60;8.13;;;21.10;99.90;;;;;;5071308;28;20173;-73
2023/07/09 04:17:32;;;;;;;9.90;8.98;;;21.10;99.90;;;;;;5071629;28;20646;-73
2023/07/09 04:19:58;;;;;;;10.88;8.23;;;21.10;99.90;;;;;;5071382;28;20213;-73
2023/07/09 04:22:24;;;;;;;8.90;7.72;;;21.20;99.90;;;;;;5071355;28;20178;-73
2023/07/09 04:24:50;;;;;;;9.18;7.97;;;21.20;99.90;;;;;;5071654;28;20178;-73
2023/07/09 04:27:16;;;;;;;9.25;7.03;;;21.20;99.90;;;;;;5070247;28;20655;-73
2023/07/09 04:29:42;;;;;;;10.23;7.68;;;21.30;99.90;;;;;;5071371;28;20194;-73
2023/07/09 04:32:16;;;;;;;11.77;7.63;;;21.40;99.90;;;;;;5071225;28;20181;-73
2023/07/09 04:34:42;;;;;;;8.90;7.28;;;21.40;99.90;;;;;;5071391;28;20178;-73
2023/07/09 04:37:11;;;;;;;11.30;7.57;;;21.50;99.90;;;;;;5070978;28;20241;-73
2023/07/09 04:39:37;;;;;;;11.30;7.75;;;21.50;99.90;;;;;;5069906;28;20289;-73
2023/07/09 04:42:03;;;;;;;9.45;8.15;;;21.60;99.90;;;;;;5071024;28;20569;-73
2023/07/09 04:44:29;;;;;;;11.32;9.05;;;21.70;99.90;;;;;;5070789;28;20182;-71
2023/07/09 04:46:54;;;;;;;10.15;8.80;;;21.80;99.90;;;;;;5070985;28;20174;-73
2023/07/09 04:49:20;;;;;;;9.55;8.00;;;21.90;99.90;;;;;;5070855;28;20770;-72
2023/07/09 04:51:46;;;;;;;9.88;7.90;;;22.00;99.90;;;;;;5071130;28;20170;-73
2023/07/09 04:54:13;;;;;;;11.20;9.90;;;22.10;99.90;;;;;;5070889;28;20233;-73
2023/07/09 04:56:39;;;;;;;17.77;16.38;;;22.20;99.90;;;;;;5071035;28;20173;-73
2023/07/09 04:59:05;;;;;;;15.45;14.13;;;22.30;99.90;;;;;;5070769;28;20183;-73
2023/07/09 05:01:30;;;;;;;7.88;7.03;;;22.50;99.90;;;;;;5071016;28;20227;-73
2023/07/09 05:03:56;;;;;;;8.38;6.43;;;22.60;99.90;;;;;;5070902;28;20690;-73
2023/07/09 05:06:22;;;;;;;9.93;7.88;;;22.80;99.90;;;;;;5070872;28;20532;-73
2023/07/09 05:08:48;;;;;;;11.18;7.25;;;23.00;99.90;;;;;;5055754;28;20212;-73
2023/07/09 05:11:14;;;;;;;10.02;6.70;;;23.20;99.90;;;;;;5075025;28;20185;-73
2023/07/09 05:13:40;;;;;;;9.82;7.43;;;23.40;99.90;;;;;;5074638;28;20194;-73
2023/07/09 05:16:06;;;;;;;9.18;8.25;;;23.60;99.90;;;;;;5075014;28;20169;-73
2023/07/09 05:18:31;;;;;;;9.10;6.10;;;23.80;99.90;;;;;;5074704;28;20217;-72
2023/07/09 05:20:57;;;;;;;7.57;6.82;;;24.00;99.90;;;;;;5074625;28;20640;-72
2023/07/09 05:23:25;;;;;;;9.35;7.10;;;24.20;99.90;;;;;;5074172;28;20691;-72
2023/07/09 05:25:57;;;;;;;10.35;7.55;;;24.40;99.90;;;;;;5074727;28;20213;-73
2023/07/09 05:28:23;;;;;;;7.72;6.90;;;24.50;99.90;;;;;;5074617;28;20194;-73
2023/07/09 05:30:48;;;;;;;7.45;6.63;;;24.60;99.90;;;;;;5074491;28;20178;-73
2023/07/09 05:33:14;;;;;;;9.00;8.07;;;24.70;99.90;;;;;;5074442;28;20271;-73
2023/07/09 05:35:42;;;;;;;7.43;6.75;;;24.60;99.90;;;;;;5074573;28;20189;-72
2023/07/09 05:38:07;;;;;;;12.25;8.30;;;24.60;99.90;;;;;;5074380;28;20170;-73
2023/07/09 05:40:33;;;;;;;7.03;6.43;;;24.60;99.90;;;;;;5074559;28;20239;-72
2023/07/09 05:42:58;;;;;;;8.48;7.30;;;24.70;99.90;;;;;;5074003;28;20167;-73
2023/07/09 05:45:24;;;;;;;10.65;7.15;;;24.70;99.90;;;;;;5074184;28;20240;-73
2023/07/09 05:47:49;;;;;;;8.07;6.93;;;24.80;99.90;;;;;;5074243;28;20515;-72
2023/07/09 05:50:15;;;;;;;11.80;6.07;;;25.00;99.90;;;;;;5074118;28;20284;-72
2023/07/09 05:52:40;;;;;;;8.43;5.90;;;25.20;99.90;;;;;;5074137;28;20198;-73
2023/07/09 05:55:06;;;;;;;5.85;5.30;;;25.60;99.90;;;;;;5073939;28;20173;-73
2023/07/09 05:57:32;;;;;;;6.20;5.50;;;26.10;99.90;;;;;;5074095;28;20715;-72
2023/07/09 05:59:58;;;;;;;6.80;5.80;;;26.50;99.90;;;;;;5074273;28;20285;-73
2023/07/09 06:02:23;;;;;;;6.82;5.50;;;26.90;99.90;;;;;;5073683;28;20190;-73
2023/07/09 06:04:51;;;;;;;7.03;5.95;;;27.20;99.90;;;;;;5072539;28;20700;-72
2023/07/09 06:07:20;;;;;;;6.28;5.68;;;27.50;99.90;;;;;;5073723;28;20553;-72
2023/07/09 06:09:47;;;;;;;7.40;6.72;;;27.80;99.90;;;;;;5073898;28;20194;-73
2023/07/09 06:12:13;;;;;;;7.80;5.63;;;28.00;99.90;;;;;;5073169;28;20167;-72
2023/07/09 06:14:39;;;;;;;6.53;5.15;;;28.00;99.90;;;;;;5073511;28;20750;-73
2023/07/09 06:17:05;;;;;;;6.00;4.95;;;28.10;99.90;;;;;;5073859;28;20178;-72
2023/07/09 06:19:30;;;;;;;8.02;5.13;;;28.10;99.90;;;;;;5072672;28;20209;-72
2023/07/09 06:21:56;;;;;;;9.45;5.45;;;28.30;99.90;;;;;;5073671;28;20190;-73
2023/07/09 06:24:22;;;;;;;5.85;5.22;;;28.60;99.90;;;;;;5073534;28;20202;-73
2023/07/09 06:26:48;;;;;;;8.45;6.18;;;28.80;99.90;;;;;;5073700;28;20182;-72
2023/07/09 06:29:14;;;;;;;7.25;5.05;;;29.00;99.90;;;;;;5073136;28;20712;-71
2023/07/09 06:31:40;;;;;;;6.35;5.13;;;29.30;99.90;;;;;;5073622;28;20531;-72
2023/07/09 06:34:07;;;;;;;9.60;4.85;;;29.50;99.90;;;;;;5072560;28;20205;-72
2023/07/09 06:36:33;;;;;;;6.10;5.50;;;29.60;99.90;;;;;;5072985;28;20212;-72
2023/07/09 06:38:59;;;;;;;5.40;4.90;;;29.80;99.90;;;;;;5073124;28;20197;-72
2023/07/09 06:41:24;;;;;;;5.55;5.05;;;30.00;99.90;;;;;;5073235;28;20178;-72
2023/07/09 06:43:50;;;;;;;8.13;5.78;;;30.10;99.90;;;;;;5072948;28;20170;-71
2023/07/09 06:46:19;;;;;;;8.35;6.13;;;30.10;99.90;;;;;;5071329;28;20178;-72
2023/07/09 06:48:45;;;;;;;7.38;4.68;;;30.00;99.90;;;;;;5072988;28;20543;-73
2023/07/09 06:51:11;;;;;;;5.78;4.65;;;30.20;99.90;;;;;;5072618;28;20231;-72
2023/07/09 06:53:36;;;;;;;9.27;4.93;;;30.60;99.90;;;;;;5053716;28;20673;-73
2023/07/09 06:56:02;;;;;;;9.27;6.47;;;30.90;99.90;;;;;;5073295;28;20554;-71
2023/07/09 06:58:31;;;;;;;6.88;5.78;;;31.20;99.90;;;;;;5073312;28;20243;-72
2023/07/09 07:00:57;;;;;;;11.00;5.28;;;31.40;99.90;;;;;;5073265;28;20278;-72
2023/07/09 07:03:24;;;;;;;8.57;6.65;;;31.50;99.90;;;;;;5071753;28;20217;-73
2023/07/09 07:05:57;;;;;;;6.97;6.28;;;31.70;99.90;;;;;;5073164;28;20170;-72
2023/07/09 07:08:25;;;;;;;7.53;6.88;;;31.70;99.90;;;;;;5072409;28;20279;-72
2023/07/09 07:11:02;;;;;;;8.77;5.88;;;31.70;99.90;;;;;;5073013;28;20613;-73
2023/07/09 07:13:32;;;;;;;8.52;7.53;;;31.60;99.90;;;;;;5072517;28;20295;-73
2023/07/09 07:15:58;;;;;;;9.23;7.93;;;31.70;99.90;;;;;;5072562;28;20181;-72
2023/07/09 07:18:24;;;;;;;8.23;7.63;;;31.70;99.90;;;;;;5074242;28;20285;-72
2023/07/09 07:20:50;;;;;;;7.43;6.72;;;31.70;99.90;;;;;;5072752;28;20163;-72
2023/07/09 07:23:16;;;;;;;10.98;10.00;;;31.80;99.90;;;;;;5072101;28;20166;-72
2023/07/09 07:25:42;;;;;;;11.63;10.30;;;31.90;99.90;;;;;;5073684;28;20572;-73
2023/07/09 07:28:07;;;;;;;8.50;6.25;;;32.00;99.90;;;;;;5072780;28;20174;-73
2023/07/09 07:30:33;;;;;;;8.73;8.13;;;32.20;99.90;;;;;;5072621;28;20552;-74
2023/07/09 07:32:59;;;;;;;6.20;5.60;;;32.60;99.90;;;;;;5072194;28;20197;-73
2023/07/09 07:35:25;;;;;;;7.30;4.97;;;32.90;99.90;;;;;;5072586;28;20170;-74
2023/07/09 07:37:50;;;;;;;7.63;6.20;;;33.00;99.90;;;;;;5073363;28;20269;-73
2023/07/09 07:40:16;;;;;;;6.88;6.22;;;33.30;99.90;;;;;;5072632;28;20615;-73
2023/07/09 07:42:42;;;;;;;8.15;5.20;;;33.30;99.90;;;;;;5056499;28;20220;-74
2023/07/09 07:45:08;;;;;;;6.43;5.75;;;33.30;99.90;;;;;;5072154;28;20646;-73
2023/07/09 07:47:34;;;;;;;18.52;16.85;;;33.40;99.90;;;;;;5071890;28;20181;-71
2023/07/09 07:49:59;;;;;;;6.80;4.90;;;33.70;99.90;;;;;;5071842;28;20186;-73
2023/07/09 07:52:25;;;;;;;9.25;6.13;;;33.90;99.90;;;;;;5071388;28;20174;-72
2023/07/09 07:54:52;;;;;;;8.70;5.85;;;33.90;99.90;;;;;;5071821;28;20173;-72
2023/07/09 07:57:18;;;;;;;7.72;4.82;;;33.80;99.90;;;;;;5071666;28;20194;-71
2023/07/09 07:59:46;;;;;;;8.00;4.78;;;33.70;99.90;;;;;;5071312;28;20190;-73
2023/07/09 08:02:13;;;;;;;5.13;4.55;;;33.70;99.90;;;;;;5071473;28;20188;-72
2023/07/09 08:04:40;;;;;;;6.38;4.47;;;33.90;99.90;;;;;;5071558;28;20177;-73
2023/07/09 08:07:07;;;;;;;5.43;4.90;;;34.00;99.90;;;;;;5071791;28;20166;-73
2023/07/09 08:09:33;;;;;;;5.15;4.30;;;34.10;99.90;;;;;;5053559;28;20689;-72
2023/07/09 08:11:59;;;;;;;6.13;4.90;;;34.50;99.90;;;;;;5070503;28;20174;-73
2023/07/09 08:14:24;;;;;;;6.28;5.15;;;34.70;99.90;;;;;;5071007;28;20198;-72
2023/07/09 08:16:50;;;;;;;7.35;5.65;;;34.90;99.90;;;;;;5071437;28;20170;-74
2023/07/09 08:19:19;;;;;;;6.05;5.55;;;35.30;99.90;;;;;;5071718;28;20677;-74
2023/07/09 08:21:45;;;;;;;7.00;4.85;;;35.80;99.90;;;;;;5071607;28;20629;-73
2023/07/09 08:24:10;;;;;;;5.80;4.28;;;36.20;99.90;;;;;;5070804;28;20193;-74
2023/07/09 08:26:37;;;;;;;6.68;4.82;;;36.70;99.90;;;;;;5071557;28;20181;-73
2023/07/09 08:29:04;;;;;;;7.32;4.50;;;37.10;99.90;;;;;;5053263;28;20235;-74
2023/07/09 08:31:30;;;;;;;6.13;4.50;;;37.60;99.90;;;;;;5071821;28;20192;-73
2023/07/09 08:33:56;;;;;;;7.07;4.05;;;37.90;99.90;;;;;;5071073;28;20677;-73
2023/07/09 08:36:22;;;;;;;5.75;4.50;;;38.40;99.90;;;;;;5071350;28;20193;-73
2023/07/09 08:38:47;;;;;;;5.32;4.00;;;38.60;99.90;;;;;;5071115;28;20669;-73
2023/07/09 08:41:28;;;;;;;6.30;3.92;;;38.80;99.90;;;;;;5071020;28;20209;-73
2023/07/09 08:44:22;;;;;;;5.47;4.15;;;38.90;99.70;;;;;;5070088;28;20185;-72
2023/07/09 08:47:07;;;;;;;6.47;3.97;;;38.80;98.50;;;;;;5071069;28;20212;-71
2023/07/09 08:49:45;;;;;;;4.88;4.40;;;38.90;97.00;;;;;;5070830;28;20186;-71
2023/07/09 08:52:20;;;;;;;7.13;4.20;;;39.00;97.40;;;;;;5070975;28;20197;-72
2023/07/09 08:54:49;;;;;;;5.45;4.43;;;38.90;95.80;;;;;;5071016;28;20399;-70
2023/07/09 08:57:23;;;;;;;5.80;4.13;;;38.60;95.70;;;;;;5070405;28;20170;-71
2023/07/09 08:59:53;;;;;;;4.88;4.38;;;38.50;96.40;;;;;;5070088;28;20190;-71
2023/07/09 09:02:39;;;;;;;5.03;4.47;;;38.40;96.00;;;;;;5070556;28;20166;-70
2023/07/09 09:05:05;;;;;;;4.78;4.22;;;38.40;96.00;;;;;;5070795;28;20181;-72
2023/07/09 09:07:44;;;;;;;7.55;4.35;;;38.50;95.80;;;;;;5070684;28;20220;-71
2023/07/09 09:10:21;;;;;;;5.15;3.95;;;38.70;96.50;;;;;;5070778;28;20220;-71
2023/07/09 09:13:11;;;;;;;4.53;3.95;;;38.90;95.00;;;;;;5070728;28;20258;-71
2023/07/09 09:15:44;;;;;;;4.47;4.07;;;39.00;95.00;;;;;;5070737;28;20292;-71
2023/07/09 09:18:26;;;;;;;6.10;4.47;;;39.00;93.60;;;;;;5070192;28;20268;-72
2023/07/09 09:20:57;;;;;;;6.00;4.07;;;39.20;95.10;;;;;;5070997;28;20165;-69
2023/07/09 09:23:30;;;;;;;6.25;4.35;;;39.10;93.60;;;;;;5068202;28;20390;-73
2023/07/09 09:25:59;;;;;;;7.03;4.22;;;39.00;95.10;;;;;;5071136;28;20641;-71
2023/07/09 09:28:27;;;;;;;6.55;5.00;;;39.20;94.80;;;;;;5070389;28;20720;-72
2023/07/09 09:30:52;;;;;;;7.38;4.32;;;39.50;94.70;;;;;;5070965;28;20540;-71
2023/07/09 09:33:18;;;;;;;5.55;4.53;;;39.60;95.10;;;;;;5070225;28;20194;-70
2023/07/09 09:35:45;;;;;;;7.32;3.92;;;39.80;94.80;;;;;;5070705;28;20171;-70
2023/07/09 09:38:15;;;;;;;5.63;4.15;;;39.90;92.40;;;;;;5070460;28;20171;-69
2023/07/09 09:40:42;;;;;;;5.97;4.18;;;39.80;93.10;;;;;;5070696;28;20505;-70
2023/07/09 09:43:17;;;;;;;4.95;4.00;;;40.00;93.90;;;;;;5069832;28;20586;-71
2023/07/09 09:45:44;;;;;;;4.40;3.75;;;39.90;92.90;;;;;;5070686;28;20169;-70
2023/07/09 09:48:27;;;;;;;5.80;4.43;;;40.00;93.00;;;;;;5069199;28;20251;-72
2023/07/09 09:50:52;;;;;;;7.30;3.92;;;40.30;92.90;;;;;;5070570;28;20181;-71
2023/07/09 09:53:22;;;;;;;10.27;4.53;;;40.50;93.80;;;;;;5069608;28;20685;-72
2023/07/09 09:55:50;;;;;;;8.85;4.28;;;41.00;94.10;;;;;;5070860;28;20170;-71
2023/07/09 09:58:18;;;;;;;5.38;4.22;;;41.20;91.00;;;;;;5073805;28;20187;-72
2023/07/09 10:00:52;;;;;;;5.20;4.20;;;41.40;91.10;;;;;;5073401;28;20511;-71
2023/07/09 10:03:18;;;;;;;1999.90;999.90;;;41.70;90.90;;;;;;5073435;28;20173;-70
2023/07/09 10:05:58;;;;;;;5.43;3.92;;;41.80;88.10;;;;;;5073826;28;20688;-71
2023/07/09 10:08:44;;;;;;;4.22;3.45;;;41.70;90.00;;;;;;5073770;28;20744;-71
2023/07/09 10:11:16;;;;;;;9.63;4.20;;;41.80;89.80;;;;;;5073492;28;20162;-71
2023/07/09 10:13:45;;;;;;;5.93;4.20;;;41.70;87.60;;;;;;5073053;28;20220;-71
2023/07/09 10:16:24;;;;;;;4.57;4.18;;;42.00;89.10;;;;;;5073112;28;20189;-72
2023/07/09 10:19:17;;;;;;;7.35;4.60;;;42.20;86.50;;;;;;5073444;28;20262;-70
2023/07/09 10:22:03;;;;;;;6.55;4.60;;;42.60;87.90;;;;;;5073446;28;20200;-71
2023/07/09 10:24:53;;;;;;;5.57;3.75;;;42.30;83.10;;;;;;5072655;28;20654;-72
2023/07/09 10:27:27;;;;;;;4.00;3.65;;;42.20;87.20;;;;;;5071438;28;20321;-72
2023/07/09 10:30:22;;;;;;;5.70;4.47;;;42.30;83.50;;;;;;5073381;28;20201;-71
2023/07/09 10:33:01;;;;;;;5.35;4.50;;;42.40;85.50;;;;;;5061941;28;20222;-70
2023/07/09 10:35:58;;;;;;;8.10;4.55;;;42.30;83.00;;;;;;5072711;28;20177;-72
2023/07/09 10:38:51;;;;;;;5.40;3.63;;;41.90;84.20;;;;;;5073183;28;20689;-71
2023/07/09 10:41:18;;;;;;;4.35;3.55;;;41.90;82.30;;;;;;5073039;28;20171;-69
2023/07/09 10:44:17;;;;;;;4.57;4.18;;;42.30;80.20;;;;;;5072858;28;20171;-71
2023/07/09 10:46:48;;;;;;;7.10;4.07;;;42.20;83.40;;;;;;5058063;28;20217;-71
2023/07/09 10:49:15;;;;;;;7.15;3.95;;;42.20;79.80;;;;;;5072516;28;20213;-71
2023/07/09 10:51:59;;;;;;;5.72;3.88;;;42.10;82.10;;;;;;5073053;28;20261;-71
2023/07/09 10:54:30;;;;;;;6.93;3.92;;;42.10;79.90;;;;;;5072462;28;20201;-70
2023/07/09 10:57:49;;;;;;;5.85;4.35;;;42.20;83.60;;;;;;5073020;28;20249;-69
2023/07/09 11:00:29;;;;;;;6.57;4.32;;;42.20;78.50;;;;;;4988635;28;20228;-72
2023/07/09 11:03:01;;;;;;;6.90;4.70;;;42.20;81.90;;;;;;5063480;28;20224;-71
2023/07/09 11:05:27;;;;;;;4.55;4.13;;;42.30;81.40;;;;;;5072454;28;20263;-71
2023/07/09 11:08:13;;;;;;;5.07;3.90;;;42.50;82.10;;;;;;5072887;28;20303;-70
2023/07/09 11:11:02;;;;;;;5.05;4.05;;;42.50;75.50;;;;;;5072788;28;20173;-72
2023/07/09 11:13:43;;;;;;;5.25;3.72;;;42.40;79.20;;;;;;5071703;28;20552;-70
2023/07/09 11:16:28;;;;;;;6.35;4.47;;;42.30;76.90;;;;;;5072291;28;20181;-71
2023/07/09 11:19:01;;;;;;;4.60;4.13;;;42.10;76.80;;;;;;5072387;28;20198;-71
2023/07/09 11:21:27;;;;;;;5.28;4.00;;;41.80;75.60;;;;;;5072112;28;20174;-71
2023/07/09 11:23:56;;;;;;;6.68;3.88;;;41.90;79.60;;;;;;5072200;28;20204;-71
2023/07/09 11:26:25;;;;;;;4.43;3.78;;;42.10;75.80;;;;;;5072300;28;20630;-71
2023/07/09 11:28:54;;;;;;;5.57;4.00;;;42.30;76.30;;;;;;5072352;28;20663;-71
2023/07/09 11:31:45;;;;;;;4.00;3.70;;;42.50;77.10;;;;;;5072120;28;20170;-71
2023/07/09 11:34:14;;;;;;;4.57;3.83;;;42.30;73.80;;;;;;5069585;28;20206;-72
2023/07/09 11:36:55;;;;;;;5.72;4.28;;;42.40;76.80;;;;;;5072241;28;20181;-72
2023/07/09 11:39:26;;;;;;;7.53;3.97;;;42.60;73.00;;;;;;5071847;28;20192;-71
2023/07/09 11:41:52;;;;;;;4.97;4.15;;;42.80;74.80;;;;;;5072117;28;20178;-71
2023/07/09 11:44:28;;;;;;;7.15;3.90;;;42.70;70.90;;;;;;5071240;28;20522;-72
2023/07/09 11:47:17;;;;;;;4.20;3.80;;;42.30;69.30;;;;;;5071510;28;20170;-71
2023/07/09 11:49:45;;;;;;;5.93;3.80;;;42.20;69.90;;;;;;5071891;28;20190;-70
2023/07/09 11:52:11;;;;;;;4.60;3.95;;;42.00;75.40;;;;;;5071558;28;20200;-70
2023/07/09 11:54:38;;;;;;;4.63;3.88;;;42.10;65.30;;;;;;5071694;28;20205;-71
2023/07/09 11:57:11;;;;;;;5.47;3.90;;;42.00;67.40;;;;;;5071730;28;20174;-71
2023/07/09 11:59:43;;;;;;;5.65;3.90;;;41.90;68.00;;;;;;5071088;28;20190;-71
2023/07/09 12:02:19;;;;;;;5.85;3.80;;;42.10;68.00;;;;;;5071573;28;20197;-71
2023/07/09 12:04:49;;;;;;;4.57;3.97;;;42.20;70.80;;;;;;5069659;28;20188;-70
2023/07/09 12:07:16;;;;;;;4.80;4.28;;;42.10;67.70;;;;;;5071368;28;20721;-71
2023/07/09 12:09:50;;;;;;;5.45;3.97;;;41.80;67.70;;;;;;5071490;28;20201;-71
2023/07/09 12:12:24;;;;;;;6.07;4.00;;;41.40;67.30;;;;;;5071267;28;20181;-72
2023/07/09 12:14:50;;;;;;;4.53;3.85;;;41.10;63.60;;;;;;5071482;28;20230;-71
2023/07/09 12:17:16;;;;;;;4.55;3.90;;;41.00;68.00;;;;;;5070492;28;20170;-72
2023/07/09 12:19:42;;;;;;;6.45;4.07;;;40.90;65.70;;;;;;5071271;28;20217;-71
2023/07/09 12:22:19;;;;;;;3.90;3.40;;;40.40;60.00;;;;;;5071287;28;20170;-71
2023/07/09 12:24:48;;;;;;;7.35;3.92;;;40.40;62.70;;;;;;5071236;28;20173;-70
2023/07/09 12:27:23;;;;;;;7.00;4.32;;;40.30;61.40;;;;;;5071106;28;20178;-71
2023/07/09 12:29:53;;;;;;;4.15;3.75;;;40.20;61.60;;;;;;5071046;28;20696;-70
2023/07/09 12:32:20;;;;;;;7.20;4.50;;;40.20;59.70;;;;;;5071021;28;20249;-72
2023/07/09 12:34:53;;;;;;;5.82;4.00;;;40.10;63.00;;;;;;5071148;28;20201;-70
2023/07/09 12:37:22;;;;;;;5.50;4.43;;;40.00;59.70;;;;;;5069679;28;20167;-70
2023/07/09 12:39:51;;;;;;;4.60;4.20;;;39.90;60.10;;;;;;5070893;28;20193;-71
2023/07/09 12:42:23;;;;;;;7.25;4.55;;;39.70;60.50;;;;;;5070911;28;20166;-72
2023/07/09 12:44:49;;;;;;;6.00;3.97;;;39.70;62.70;;;;;;5071403;28;20177;-71
2023/07/09 12:47:17;;;;;;;4.63;4.20;;;39.70;63.30;;;;;;5070960;28;20175;-71
2023/07/09 12:49:44;;;;;;;8.00;3.80;;;39.50;58.90;;;;;;5071059;28;20235;-71
2023/07/09 12:52:20;;;;;;;4.82;3.92;;;39.20;60.20;;;;;;5071193;28;20633;-71
2023/07/09 12:55:00;;;;;;;5.57;3.42;;;38.80;58.70;;;;;;5069803;28;20209;-72